Time;durP1;ratioP1;P1;durP2;ratioP2;P2;SDS_P1;SDS_P2;PMS_P1;PMS_P2;Temp;Humidity;BMP_temperature;BMP_pressure;BME280_temperature;BME280_humidity;BME280_pressure;Samples;Min_cycle;Max_cycle;Signal;HPM_P1;HPM_P2
2023/08/05 00:01:45;;;;;;;2.47;2.23;;;;;;;;;;5053694;28;20582;-81
2023/08/05 00:04:11;;;;;;;4.73;1.87;;;;;;;;;;5072416;28;20215;-81
2023/08/05 00:06:38;;;;;;;5.00;2.23;;;;;;;;;;5054156;28;20223;-80
2023/08/05 00:09:07;;;;;;;2.40;2.20;;;;;;;;;;5072605;28;20655;-81
2023/08/05 00:11:34;;;;;;;2.30;2.10;;;;;;;;;;5071418;28;20197;-81
2023/08/05 00:14:01;;;;;;;3.30;2.03;;;;;;;;;;5072103;28;20204;-82
2023/08/05 00:16:29;;;;;;;2.57;2.07;;;;;;;;;;5054403;28;20221;-81
2023/08/05 00:18:56;;;;;;;2.00;1.90;;;;;;;;;;5071418;28;20204;-82
2023/08/05 00:21:23;;;;;;;2.27;2.10;;;;;;;;;;5071827;28;20205;-82
2023/08/05 00:23:50;;;;;;;4.00;1.93;;;;;;;;;;5054044;28;20690;-82
2023/08/05 00:26:18;;;;;;;2.63;2.43;;;;;;;;;;5053642;28;20231;-81
2023/08/05 00:28:45;;;;;;;2.40;2.10;;;;;;;;;;5071498;28;20204;-81
2023/08/05 00:31:12;;;;;;;3.20;2.50;;;;;;;;;;5053611;28;20197;-81
2023/08/05 00:33:40;;;;;;;4.90;2.27;;;;;;;;;;5054114;28;20212;-81
2023/08/05 00:36:07;;;;;;;2.63;2.00;;;;;;;;;;5053916;28;20679;-81
2023/08/05 00:38:34;;;;;;;2.27;2.07;;;;;;;;;;5070336;28;20231;-81
2023/08/05 00:41:01;;;;;;;2.67;2.23;;;;;;;;;;5054262;28;20205;-81
2023/08/05 00:43:30;;;;;;;2.13;2.03;;;;;;;;;;5055108;28;20200;-81
2023/08/05 00:45:58;;;;;;;2.50;2.30;;;;;;;;;;5071271;28;20197;-81
2023/08/05 00:48:26;;;;;;;2.33;2.00;;;;;;;;;;5072312;28;20185;-81
2023/08/05 00:50:53;;;;;;;3.23;2.30;;;;;;;;;;5053690;28;20585;-81
2023/08/05 00:53:23;;;;;;;1.93;1.83;;;;;;;;;;5072233;28;20217;-81
2023/08/05 00:55:50;;;;;;;2.10;2.00;;;;;;;;;;5054442;28;20659;-81
2023/08/05 00:58:18;;;;;;;2.13;1.93;;;;;;;;;;5071477;28;20224;-81
2023/08/05 01:00:45;;;;;;;2.27;1.90;;;;;;;;;;5053676;28;20196;-81
2023/08/05 01:03:12;;;;;;;1.93;1.83;;;;;;;;;;5053179;28;20205;-81
2023/08/05 01:05:40;;;;;;;2.20;2.10;;;;;;;;;;5071415;28;20659;-81
2023/08/05 01:08:07;;;;;;;2.30;2.10;;;;;;;;;;5037806;28;20197;-80
2023/08/05 01:10:35;;;;;;;2.40;1.73;;;;;;;;;;5053479;28;20262;-81
2023/08/05 01:13:02;;;;;;;3.60;2.40;;;;;;;;;;5071669;28;20292;-81
2023/08/05 01:15:29;;;;;;;2.60;2.17;;;;;;;;;;5053785;28;20258;-81
2023/08/05 01:17:58;;;;;;;2.43;2.23;;;;;;;;;;5053411;28;20229;-81
2023/08/05 01:20:30;;;;;;;2.50;2.27;;;;;;;;;;5077252;28;20212;-81
2023/08/05 01:23:06;;;;;;;2.27;2.10;;;;;;;;;;5091427;28;20196;-81
2023/08/05 01:25:35;;;;;;;2.57;2.07;;;;;;;;;;5073800;28;20614;-81
2023/08/05 01:28:03;;;;;;;6.57;3.07;;;;;;;;;;5091364;28;20697;-81
2023/08/05 01:30:32;;;;;;;24.20;3.60;;;;;;;;;;5073763;28;20199;-81
2023/08/05 01:33:01;;;;;;;3.27;2.30;;;;;;;;;;5073735;28;20208;-82
2023/08/05 01:35:27;;;;;;;2.40;2.20;;;;;;;;;;5073424;28;20200;-81
2023/08/05 01:37:55;;;;;;;2.27;2.17;;;;;;;;;;5093116;28;20227;-81
2023/08/05 01:40:27;;;;;;;2.43;2.23;;;;;;;;;;5077058;28;20693;-81
2023/08/05 01:42:58;;;;;;;2.73;2.50;;;;;;;;;;5095357;28;20197;-81
2023/08/05 01:45:25;;;;;;;2.90;2.70;;;;;;;;;;5095025;28;20566;-81
2023/08/05 01:47:52;;;;;;;2.27;2.10;;;;;;;;;;5077237;28;20189;-81
2023/08/05 01:50:19;;;;;;;3.37;2.37;;;;;;;;;;5095867;28;20253;-81
2023/08/05 01:52:46;;;;;;;2.37;2.17;;;;;;;;;;5060773;28;20208;-81
2023/08/05 01:55:13;;;;;;;2.40;2.20;;;;;;;;;;5094533;28;20215;-81
2023/08/05 01:57:40;;;;;;;2.40;2.20;;;;;;;;;;5077090;28;20215;-81
2023/08/05 02:00:11;;;;;;;2.90;2.63;;;;;;;;;;5060343;28;20196;-81
2023/08/05 02:02:38;;;;;;;3.23;2.70;;;;;;;;;;5060346;28;20254;-81
2023/08/05 02:05:05;;;;;;;2.80;2.60;;;;;;;;;;5060327;28;20204;-81
2023/08/05 02:07:32;;;;;;;2.90;2.57;;;;;;;;;;5076296;28;20203;-81
2023/08/05 02:09:59;;;;;;;2.73;2.53;;;;;;;;;;5076546;28;20200;-81
2023/08/05 02:12:26;;;;;;;2.73;2.53;;;;;;;;;;5076615;28;20203;-81
2023/08/05 02:14:53;;;;;;;2.70;2.50;;;;;;;;;;5043623;28;20200;-81
2023/08/05 02:17:22;;;;;;;3.00;2.80;;;;;;;;;;5095378;28;20219;-82
2023/08/05 02:19:49;;;;;;;2.30;2.20;;;;;;;;;;5059903;28;20196;-82
2023/08/05 02:22:16;;;;;;;2.70;2.50;;;;;;;;;;5076387;28;20196;-82
2023/08/05 02:24:44;;;;;;;2.80;2.60;;;;;;;;;;5076220;28;20211;-82
2023/08/05 02:27:11;;;;;;;2.90;2.70;;;;;;;;;;5043014;28;20581;-82
2023/08/05 02:29:38;;;;;;;2.87;2.67;;;;;;;;;;5074534;28;20197;-82
2023/08/05 02:32:05;;;;;;;4.53;2.73;;;;;;;;;;5094948;28;20192;-81
2023/08/05 02:34:35;;;;;;;3.33;3.03;;;;;;;;;;5094199;28;20200;-82
2023/08/05 02:37:02;;;;;;;2.70;2.50;;;;;;;;;;5059286;28;20563;-81
2023/08/05 02:39:29;;;;;;;3.00;2.80;;;;;;;;;;5075574;28;20200;-81
2023/08/05 02:41:56;;;;;;;3.37;3.07;;;;;;;;;;5076463;28;20192;-81
2023/08/05 02:44:23;;;;;;;3.10;2.90;;;;;;;;;;5093785;28;20192;-81
2023/08/05 02:46:50;;;;;;;3.83;2.93;;;;;;;;;;5092112;28;20689;-81
2023/08/05 02:49:17;;;;;;;6.53;3.23;;;;;;;;;;5043052;28;20196;-81
2023/08/05 02:51:46;;;;;;;3.30;3.00;;;;;;;;;;5093721;28;20196;-81
2023/08/05 02:54:13;;;;;;;3.53;3.23;;;;;;;;;;5093419;28;20231;-81
2023/08/05 02:56:40;;;;;;;3.57;3.33;;;;;;;;;;5075847;28;20200;-80
2023/08/05 02:59:07;;;;;;;3.00;2.80;;;;;;;;;;5093599;28;20231;-81
2023/08/05 03:01:35;;;;;;;3.63;3.20;;;;;;;;;;5093954;28;20204;-81
2023/08/05 03:04:02;;;;;;;3.20;2.90;;;;;;;;;;5075250;28;20578;-81
2023/08/05 03:06:29;;;;;;;3.43;2.83;;;;;;;;;;5075477;28;20200;-81
2023/08/05 03:08:58;;;;;;;3.57;3.10;;;;;;;;;;5076024;28;20199;-81
2023/08/05 03:11:25;;;;;;;3.50;3.20;;;;;;;;;;5092778;28;20222;-81
2023/08/05 03:13:52;;;;;;;5.13;3.00;;;;;;;;;;5075317;28;20203;-80
2023/08/05 03:16:22;;;;;;;3.70;3.40;;;;;;;;;;5075246;28;20215;-81
2023/08/05 03:18:49;;;;;;;3.50;3.20;;;;;;;;;;5092882;28;20277;-81
2023/08/05 03:21:16;;;;;;;4.80;3.60;;;;;;;;;;5074927;28;20200;-81
2023/08/05 03:23:43;;;;;;;6.83;3.37;;;;;;;;;;5058616;28;20196;-82
2023/08/05 03:26:11;;;;;;;5.07;3.33;;;;;;;;;;5075114;28;20200;-81
2023/08/05 03:28:39;;;;;;;4.00;3.60;;;;;;;;;;5093448;28;20204;-82
2023/08/05 03:31:06;;;;;;;5.07;3.10;;;;;;;;;;5074492;28;20204;-82
2023/08/05 03:33:33;;;;;;;7.60;5.97;;;;;;;;;;5058606;28;20254;-82
2023/08/05 03:36:01;;;;;;;5.60;4.43;;;;;;;;;;5075307;28;20203;-82
2023/08/05 03:38:28;;;;;;;7.43;5.23;;;;;;;;;;5056544;28;20255;-82
2023/08/05 03:40:55;;;;;;;6.10;3.80;;;;;;;;;;5092999;28;20196;-82
2023/08/05 03:43:24;;;;;;;4.80;3.97;;;;;;;;;;5075385;28;20200;-82
2023/08/05 03:45:51;;;;;;;6.90;3.80;;;;;;;;;;5092576;28;20207;-82
2023/08/05 03:48:19;;;;;;;4.20;3.80;;;;;;;;;;5092948;28;20200;-82
2023/08/05 03:50:46;;;;;;;5.30;4.17;;;;;;;;;;5074767;28;20200;-82
2023/08/05 03:53:13;;;;;;;6.77;4.97;;;;;;;;;;5092633;28;20224;-82
2023/08/05 03:55:40;;;;;;;5.23;3.77;;;;;;;;;;5093050;28;20203;-82
2023/08/05 03:58:07;;;;;;;4.73;3.90;;;;;;;;;;5092564;28;20211;-82
2023/08/05 04:00:40;;;;;;;5.53;4.30;;;;;;;;;;5073959;28;20196;-83
2023/08/05 04:03:07;;;;;;;5.57;4.70;;;;;;;;;;5092317;28;20196;-83
2023/08/05 04:05:34;;;;;;;4.23;3.90;;;;;;;;;;5074380;28;20196;-83
2023/08/05 04:08:01;;;;;;;8.33;4.13;;;;;;;;;;5092522;28;20578;-82
2023/08/05 04:10:30;;;;;;;5.17;4.67;;;;;;;;;;5057770;28;20208;-83
2023/08/05 04:12:58;;;;;;;36.47;5.83;;;;;;;;;;5092155;28;20207;-78
2023/08/05 04:15:30;;;;;;;81.03;10.70;;;;;;;;;;5092163;28;20249;-81
2023/08/05 04:17:59;;;;;;;19.93;6.03;;;;;;;;;;5092259;28;20566;-78
2023/08/05 04:20:28;;;;;;;6.63;4.80;;;;;;;;;;5092563;28;20207;-81
2023/08/05 04:22:55;;;;;;;4.97;4.27;;;;;;;;;;5073906;28;20204;-81
2023/08/05 04:25:22;;;;;;;5.40;4.90;;;;;;;;;;5073596;28;20196;-81
2023/08/05 04:27:49;;;;;;;8.13;5.07;;;;;;;;;;5092149;28;20208;-81
2023/08/05 04:30:16;;;;;;;4.53;4.03;;;;;;;;;;5057800;28;20196;-81
2023/08/05 04:32:43;;;;;;;5.60;4.70;;;;;;;;;;5074440;28;20196;-81
2023/08/05 04:35:11;;;;;;;5.33;4.83;;;;;;;;;;5073902;28;20200;-81
2023/08/05 04:37:38;;;;;;;12.27;6.17;;;;;;;;;;5091883;28;20200;-82
2023/08/05 04:40:06;;;;;;;7.47;6.67;;;;;;;;;;5074405;28;20200;-81
2023/08/05 04:42:33;;;;;;;7.07;6.23;;;;;;;;;;5073827;28;20681;-81
2023/08/05 04:45:01;;;;;;;7.17;5.67;;;;;;;;;;5091493;28;20253;-81
2023/08/05 04:47:27;;;;;;;7.90;5.93;;;;;;;;;;5092179;28;20230;-81
2023/08/05 04:49:55;;;;;;;4.90;4.50;;;;;;;;;;5073728;28;20204;-81
2023/08/05 04:52:24;;;;;;;5.93;5.30;;;;;;;;;;5074391;28;20200;-81
2023/08/05 04:54:51;;;;;;;5.90;5.40;;;;;;;;;;5074130;28;20686;-80
2023/08/05 04:57:18;;;;;;;5.53;5.00;;;;;;;;;;5073575;28;20196;-80
2023/08/05 04:59:45;;;;;;;5.90;5.40;;;;;;;;;;5074133;28;20662;-81
2023/08/05 05:02:12;;;;;;;6.50;5.23;;;;;;;;;;5073639;28;20204;-81
2023/08/05 05:04:39;;;;;;;6.53;5.47;;;;;;;;;;5074244;28;20199;-83
2023/08/05 05:07:06;;;;;;;9.07;5.33;;;;;;;;;;5073783;28;20659;-83
2023/08/05 05:09:35;;;;;;;5.70;5.13;;;;;;;;;;5091547;28;20212;-83
2023/08/05 05:12:02;;;;;;;7.30;5.57;;;;;;;;;;5074202;28;20242;-82
2023/08/05 05:14:32;;;;;;;10.47;5.57;;;;;;;;;;5077817;28;20203;-82
2023/08/05 05:16:59;;;;;;;5.57;5.07;;;;;;;;;;5095078;28;20203;-83
2023/08/05 05:19:26;;;;;;;5.77;5.20;;;;;;;;;;5095353;28;20223;-83
2023/08/05 05:21:53;;;;;;;6.33;5.73;;;;;;;;;;5077649;28;20208;-83
2023/08/05 05:24:20;;;;;;;5.37;4.97;;;;;;;;;;5060930;28;20636;-82
2023/08/05 05:26:49;;;;;;;6.37;5.73;;;;;;;;;;5060621;28;20656;-82
2023/08/05 05:29:19;;;;;;;8.73;5.83;;;;;;;;;;5095437;28;20196;-82
2023/08/05 05:31:51;;;;;;;7.17;5.57;;;;;;;;;;5077690;28;20287;-82
2023/08/05 05:34:18;;;;;;;5.43;5.03;;;;;;;;;;5077398;28;20249;-84
2023/08/05 05:36:45;;;;;;;6.40;5.73;;;;;;;;;;5076994;28;20355;-83
2023/08/05 05:39:12;;;;;;;6.73;5.70;;;;;;;;;;5095306;28;20223;-81
2023/08/05 05:41:39;;;;;;;7.23;5.10;;;;;;;;;;5076987;28;20196;-81
2023/08/05 05:44:07;;;;;;;5.60;5.20;;;;;;;;;;5060332;28;20204;-81
2023/08/05 05:46:34;;;;;;;7.80;5.60;;;;;;;;;;5095384;28;20192;-81
2023/08/05 05:49:03;;;;;;;8.47;5.70;;;;;;;;;;5076809;28;20254;-80
2023/08/05 05:51:30;;;;;;;7.93;5.50;;;;;;;;;;5077239;28;20209;-79
2023/08/05 05:53:57;;;;;;;8.23;5.77;;;;;;;;;;5094824;28;20208;-79
2023/08/05 05:56:24;;;;;;;6.30;5.77;;;;;;;;;;5076389;28;20218;-78
2023/08/05 05:58:51;;;;;;;5.90;5.43;;;;;;;;;;5076979;28;20690;-79
2023/08/05 06:01:20;;;;;;;6.23;5.57;;;;;;;;;;5094969;28;20571;-79
2023/08/05 06:03:47;;;;;;;8.47;5.77;;;;;;;;;;5076401;28;20211;-79
2023/08/05 06:06:14;;;;;;;5.50;5.10;;;;;;;;;;5094981;28;20196;-79
2023/08/05 06:08:41;;;;;;;6.53;5.97;;;;;;;;;;5076569;28;20204;-80
2023/08/05 06:11:10;;;;;;;8.53;5.73;;;;;;;;;;5076504;28;20204;-80
2023/08/05 06:13:37;;;;;;;6.67;4.93;;;;;;;;;;5076721;28;20204;-79
2023/08/05 06:16:05;;;;;;;7.23;5.80;;;;;;;;;;5094178;28;20193;-79
2023/08/05 06:18:33;;;;;;;7.93;5.47;;;;;;;;;;5076546;28;20627;-79
2023/08/05 06:21:00;;;;;;;8.20;5.50;;;;;;;;;;5076351;28;20671;-77
2023/08/05 06:23:27;;;;;;;6.60;6.00;;;;;;;;;;5059374;28;20572;-77
2023/08/05 06:25:54;;;;;;;6.90;6.00;;;;;;;;;;5094167;28;20286;-77
2023/08/05 06:28:21;;;;;;;6.57;6.07;;;;;;;;;;5093360;28;20283;-77
2023/08/05 06:30:48;;;;;;;6.30;4.63;;;;;;;;;;5094502;28;20618;-76
2023/08/05 06:33:15;;;;;;;7.70;5.77;;;;;;;;;;5076087;28;20207;-77
2023/08/05 06:35:44;;;;;;;5.30;4.83;;;;;;;;;;5074628;28;20573;-77
2023/08/05 06:38:11;;;;;;;6.35;5.75;;;;;;;;;;5094110;28;20226;-77
2023/08/05 06:40:38;;;;;;;5.40;5.00;;;;;;;;;;5076789;28;20570;-77
2023/08/05 06:43:05;;;;;;;5.77;5.27;;;;;;;;;;5092187;28;20208;-76
2023/08/05 06:45:32;;;;;;;5.30;4.57;;;;;;;;;;5092150;28;20199;-76
2023/08/05 06:47:59;;;;;;;4.67;4.17;;;;;;;;;;5091822;28;20253;-76
2023/08/05 06:50:25;;;;;;;4.90;4.50;;;;;;;;;;5092532;28;20189;-76
2023/08/05 06:52:54;;;;;;;5.07;4.57;;;;;;;;;;5093414;28;20212;-76
2023/08/05 06:55:22;;;;;;;5.40;4.90;;;;;;;;;;5091473;28;20219;-77
2023/08/05 06:57:49;;;;;;;7.50;5.53;;;;;;;;;;5092380;28;20196;-77
2023/08/05 07:00:16;;;;;;;5.47;4.97;;;;;;;;;;5091988;28;20281;-76
2023/08/05 07:02:43;;;;;;;6.83;4.97;;;;;;;;;;5093541;28;20204;-76
2023/08/05 07:05:10;;;;;;;6.97;6.10;;;;;;;;;;5093771;28;20256;-77
2023/08/05 07:07:37;;;;;;;6.23;5.20;;;;;;;;;;5093349;28;20724;-77
2023/08/05 07:10:07;;;;;;;4.67;4.30;;;;;;;;;;5092674;28;20631;-77
2023/08/05 07:12:34;;;;;;;8.37;4.73;;;;;;;;;;5094238;28;20200;-76
2023/08/05 07:15:01;;;;;;;6.33;5.10;;;;;;;;;;5093454;28;20228;-77
2023/08/05 07:17:28;;;;;;;5.50;5.00;;;;;;;;;;5091512;28;20196;-76
2023/08/05 07:19:55;;;;;;;5.85;5.32;;;;;;;;;;5082654;28;20216;-76
2023/08/05 07:22:22;;;;;;;7.35;4.88;;;;;;;;;;5093085;28;20682;-77
2023/08/05 07:24:49;;;;;;;7.45;4.95;;;;;;;;;;5093156;28;20207;-77
2023/08/05 07:27:17;;;;;;;5.07;4.57;;;;;;;;;;5093029;28;20203;-77
2023/08/05 07:29:44;;;;;;;7.15;5.38;;;;;;;;;;5091629;28;20202;-77
2023/08/05 07:32:11;;;;;;;5.15;4.75;;;;;;;;;;5092886;28;20197;-76
2023/08/05 07:34:37;;;;;;;5.20;4.70;;;;;;;;;;5090537;28;20200;-77
2023/08/05 07:37:05;;;;;;;6.85;4.63;;;;;;;;;;5081055;28;20204;-77
2023/08/05 07:39:34;;;;;;;4.43;4.03;;;;;;;;;;5072430;28;20221;-76
2023/08/05 07:42:02;;;;;;;7.35;4.82;;;;;;;;;;5072382;28;20292;-76
2023/08/05 07:44:32;;;;;;;5.05;4.55;;;;;;;;;;5072402;28;20196;-76
2023/08/05 07:46:59;;;;;;;5.00;4.55;;;;;;;;;;5072119;28;20197;-76
2023/08/05 07:49:26;;;;;;;5.70;4.45;;;;;;;;;;5072314;28;20204;-76
2023/08/05 07:51:53;;;;;;;5.93;4.65;;;;;;;;;;5072318;28;20208;-76
2023/08/05 07:54:23;;;;;;;5.60;4.65;;;;;;;;;;5072539;28;20758;-76
2023/08/05 07:56:51;;;;;;;5.25;4.85;;;;;;;;;;5072184;28;20200;-76
2023/08/05 07:59:19;;;;;;;5.32;4.60;;;;;;;;;;5071978;28;20221;-77
2023/08/05 08:01:48;;;;;;;7.80;4.40;;;;;;;;;;5072058;28;20208;-76
2023/08/05 08:04:15;;;;;;;4.78;4.38;;;;;;;;;;5072178;28;20204;-76
2023/08/05 08:06:43;;;;;;;4.93;4.45;;;;;;;;;;5072034;28;20247;-76
2023/08/05 08:09:10;;;;;;;5.70;4.00;;;;;;;;;;5072264;28;20197;-76
2023/08/05 08:11:37;;;;;;;6.00;4.82;;;;;;;;;;5072512;28;20194;-76
2023/08/05 08:14:04;;;;;;;9.70;4.65;;;;;;;;;;5072735;28;20276;-77
2023/08/05 08:16:31;;;;;;;4.40;4.10;;;;;;;;;;5072302;28;20224;-76
2023/08/05 08:18:59;;;;;;;5.50;4.25;;;;;;;;;;5071932;28;20220;-77
2023/08/05 08:21:26;;;;;;;4.97;3.88;;;;;;;;;;5072264;28;20204;-76
2023/08/05 08:23:52;;;;;;;4.97;4.22;;;;;;;;;;5071922;28;20605;-76
2023/08/05 08:26:22;;;;;;;5.55;3.97;;;;;;;;;;5079061;28;20193;-77
2023/08/05 08:28:48;;;;;;;5.07;4.15;;;;;;;;;;5091455;28;20192;-77
2023/08/05 08:31:15;;;;;;;6.40;4.20;;;;;;;;;;5091876;28;20197;-77
2023/08/05 08:33:42;;;;;;;4.40;4.00;;;;;;;;;;5091941;28;20686;-76
2023/08/05 08:36:10;;;;;;;5.72;3.85;;;;;;;;;;5091956;28;20204;-76
2023/08/05 08:38:37;;;;;;;5.35;4.40;;;;;;;;;;5074677;28;20254;-77
2023/08/05 08:41:04;;;;;;;6.75;3.40;;;;;;;;;;5071579;28;20671;-77
2023/08/05 08:43:30;;;;;;;4.20;3.83;;;;;;;;;;5072248;28;20197;-77
2023/08/05 08:45:58;;;;;;;5.30;4.00;;;;;;;;;;5071373;28;20647;-77
2023/08/05 08:48:25;;;;;;;5.38;3.80;;;;;;;;;;5070431;28;20193;-77
2023/08/05 08:50:54;;;;;;;3.97;3.60;;;;;;;;;;5071612;28;20197;-77
2023/08/05 08:53:22;;;;;;;5.95;3.92;;;;;;;;;;5070042;28;20231;-77
2023/08/05 08:55:50;;;;;;;5.22;3.60;;;;;;;;;;5071508;28;20238;-77
2023/08/05 08:58:17;;;;;;;4.28;3.92;;;;;;;;;;5071392;28;20574;-76
2023/08/05 09:00:44;;;;;;;5.60;3.28;;;;;;;;;;5071367;28;20225;-76
2023/08/05 09:03:10;;;;;;;4.22;3.22;;;;;;;;;;5071673;28;20678;-77
2023/08/05 09:05:42;;;;;;;3.42;3.10;;;;;;;;;;5071557;28;20563;-76
2023/08/05 09:08:09;;;;;;;5.18;3.30;;;;;;;;;;5072692;28;20205;-76
2023/08/05 09:10:38;;;;;;;4.38;3.58;;;;;;;;;;5071669;28;20228;-76
2023/08/05 09:13:05;;;;;;;3.22;2.92;;;;;;;;;;5071690;28;20274;-76
2023/08/05 09:15:34;;;;;;;3.83;3.05;;;;;;;;;;5071448;28;20673;-76
2023/08/05 09:18:03;;;;;;;3.45;3.15;;;;;;;;;;5071700;28;20197;-76
2023/08/05 09:20:32;;;;;;;5.00;3.40;;;;;;;;;;5071530;28;20290;-77
2023/08/05 09:23:01;;;;;;;4.25;2.80;;;;;;;;;;5071607;28;20599;-76
2023/08/05 09:25:28;;;;;;;3.08;2.83;;;;;;;;;;5070136;28;20576;-77
2023/08/05 09:27:57;;;;;;;4.25;3.72;;;;;;;;;;5091248;28;20223;-76
2023/08/05 09:30:25;;;;;;;5.68;2.92;;;;;;;;;;5090595;28;20181;-77
2023/08/05 09:32:53;;;;;;;3.13;2.72;;;;;;;;;;5090819;28;20204;-76
2023/08/05 09:35:19;;;;;;;2.58;2.38;;;;;;;;;;5091034;28;20204;-76
2023/08/05 09:37:48;;;;;;;4.32;3.15;;;;;;;;;;5090795;28;20199;-77
2023/08/05 09:40:16;;;;;;;4.15;3.05;;;;;;;;;;5091341;28;20224;-76
2023/08/05 09:42:47;;;;;;;3.45;2.92;;;;;;;;;;5091522;28;20207;-77
2023/08/05 09:45:16;;;;;;;5.68;2.88;;;;;;;;;;5092029;28;20294;-77
2023/08/05 09:47:46;;;;;;;3.85;3.45;;;;;;;;;;5091596;28;20192;-76
2023/08/05 09:50:13;;;;;;;3.35;3.05;;;;;;;;;;5091613;28;20200;-77
2023/08/05 09:52:40;;;;;;;3.88;3.50;;;;;;;;;;5090010;28;20203;-80
2023/08/05 09:55:13;;;;;;;6.72;3.33;;;;;;;;;;5091432;28;20640;-77
2023/08/05 09:57:40;;;;;;;3.33;3.13;;;;;;;;;;5092218;28;20197;-76
2023/08/05 10:00:10;;;;;;;4.20;3.50;;;;;;;;;;5094637;28;20217;-77
2023/08/05 10:02:41;;;;;;;7.60;3.03;;;;;;;;;;5095190;28;20199;-77
2023/08/05 10:05:09;;;;;;;4.38;3.15;;;;;;;;;;5093053;28;20739;-78
2023/08/05 10:07:36;;;;;;;3.75;3.33;;;;;;;;;;5095230;28;20242;-77
2023/08/05 10:10:06;;;;;;;5.32;3.47;;;;;;;;;;5095331;28;20199;-78
2023/08/05 10:12:38;;;;;;;8.65;3.15;;;;;;;;;;5094821;28;20616;-79
2023/08/05 10:15:06;;;;;;;3.67;2.88;;;;;;;;;;5094976;28;20200;-77
2023/08/05 10:17:33;;;;;;;3.40;3.10;;;;;;;;;;5094855;28;20196;-77
2023/08/05 10:20:03;;;;;;;3.25;2.95;;;;;;;;;;5093979;28;20224;-77
2023/08/05 10:22:31;;;;;;;4.72;2.85;;;;;;;;;;5094651;28;20207;-77
2023/08/05 10:25:00;;;;;;;4.95;3.38;;;;;;;;;;5094582;28;20302;-77
2023/08/05 10:27:44;;;;;;;4.32;3.50;;;;;;;;;;5089101;28;20640;-77
2023/08/05 10:30:13;;;;;;;7.15;3.55;;;;;;;;;;5081932;28;20535;-78
2023/08/05 10:32:53;;;;;;;4.45;4.05;;;;;;;;;;5073762;28;20201;-77
2023/08/05 10:35:28;;;;;;;4.38;2.90;;;;;;;;;;5074780;28;20201;-77
2023/08/05 10:38:08;;;;;;;8.52;3.30;;;;;;;;;;5073289;28;20571;-77
2023/08/05 10:40:45;;;;;;;3.00;2.80;;;;;;;;;;5073568;28;20217;-77
2023/08/05 10:43:12;;;;;;;3.10;2.60;;;;;;;;;;5074734;28;20200;-77
2023/08/05 10:45:41;;;;;;;2.95;2.72;;;;;;;;;;5073833;28;20216;-77
2023/08/05 10:48:09;;;;;;;3.35;2.92;;;;;;;;;;5073950;28;20626;-77
2023/08/05 10:50:38;;;;;;;4.57;2.72;;;;;;;;;;5073620;28;20541;-77
2023/08/05 10:53:07;;;;;;;4.85;2.70;;;;;;;;;;5073371;28;20193;-77
2023/08/05 10:55:45;;;;;;;2.92;2.40;;;;;;;;;;5073585;28;20563;-76
2023/08/05 10:58:12;;;;;;;4.00;2.55;;;;;;;;;;5073559;28;20233;-77
2023/08/05 11:00:41;;;;;;;5.93;3.22;;;;;;;;;;5073235;28;20216;-77
2023/08/05 11:03:32;;;;;;;5.30;2.60;;;;;;;;;;5073223;28;20702;-77
2023/08/05 11:06:05;;;;;;;3.88;3.08;;;;;;;;;;5073650;28;20258;-77
2023/08/05 11:08:32;;;;;;;4.10;2.80;;;;;;;;;;5073111;28;20673;-77
2023/08/05 11:11:03;;;;;;;4.50;2.58;;;;;;;;;;5071949;28;20560;-77
2023/08/05 11:13:34;;;;;;;3.15;2.85;;;;;;;;;;5073166;28;20190;-77
2023/08/05 11:16:02;;;;;;;6.05;2.22;;;;;;;;;;5073178;28;20233;-77
2023/08/05 11:18:29;;;;;;;5.97;3.08;;;;;;;;;;5073279;28;20200;-77
2023/08/05 11:20:56;;;;;;;5.55;3.45;;;;;;;;;;5073348;28;20565;-76
2023/08/05 11:23:26;;;;;;;5.38;3.80;;;;;;;;;;5073200;28;20197;-77
2023/08/05 11:25:53;;;;;;;3.33;3.13;;;;;;;;;;5073727;28;20224;-77
2023/08/05 11:28:20;;;;;;;2.92;2.72;;;;;;;;;;5072264;28;20288;-77
2023/08/05 11:30:47;;;;;;;3.35;3.05;;;;;;;;;;5076533;28;20215;-77
2023/08/05 11:33:14;;;;;;;7.10;3.00;;;;;;;;;;5092459;28;20231;-77
2023/08/05 11:35:45;;;;;;;4.13;2.75;;;;;;;;;;5083267;28;20635;-77
2023/08/05 11:38:12;;;;;;;4.68;2.78;;;;;;;;;;5093634;28;20223;-78
2023/08/05 11:40:44;;;;;;;3.97;2.97;;;;;;;;;;5091331;28;20219;-77
2023/08/05 11:43:12;;;;;;;3.50;2.50;;;;;;;;;;5092790;28;20196;-77
2023/08/05 11:45:40;;;;;;;3.25;2.60;;;;;;;;;;5092641;28;20201;-77
2023/08/05 11:48:08;;;;;;;2.65;2.42;;;;;;;;;;5087994;28;20249;-77
2023/08/05 11:50:35;;;;;;;3.38;2.83;;;;;;;;;;5072439;28;20287;-77
2023/08/05 11:53:05;;;;;;;4.10;2.22;;;;;;;;;;5088154;28;20196;-77
2023/08/05 11:55:35;;;;;;;3.35;2.22;;;;;;;;;;5071728;28;20193;-77
2023/08/05 11:58:04;;;;;;;3.30;2.33;;;;;;;;;;5071234;28;20212;-77
2023/08/05 12:00:31;;;;;;;4.25;2.75;;;;;;;;;;5091943;28;20228;-77
2023/08/05 12:02:58;;;;;;;4.20;2.55;;;;;;;;;;5091815;28;20235;-77
2023/08/05 12:05:25;;;;;;;4.88;2.67;;;;;;;;;;5091485;28;20196;-78
2023/08/05 12:07:52;;;;;;;3.20;2.55;;;;;;;;;;5091055;28;20689;-77
2023/08/05 12:10:21;;;;;;;2.60;2.40;;;;;;;;;;5091658;28;20200;-77
2023/08/05 12:12:49;;;;;;;3.00;2.70;;;;;;;;;;5091885;28;20204;-77
2023/08/05 12:15:19;;;;;;;2.60;2.40;;;;;;;;;;5092466;28;20196;-77
2023/08/05 12:17:48;;;;;;;4.53;2.80;;;;;;;;;;5092841;28;20250;-77
2023/08/05 12:20:17;;;;;;;3.30;2.35;;;;;;;;;;5091181;28;20231;-77
2023/08/05 12:22:43;;;;;;;8.25;3.20;;;;;;;;;;5092166;28;20196;-77
2023/08/05 12:25:10;;;;;;;4.93;2.40;;;;;;;;;;5090647;28;20223;-77
2023/08/05 12:27:37;;;;;;;2.90;2.70;;;;;;;;;;5091771;28;20573;-77
2023/08/05 12:30:05;;;;;;;5.43;2.70;;;;;;;;;;5090934;28;20705;-77
2023/08/05 12:32:34;;;;;;;3.05;2.75;;;;;;;;;;5090931;28;20203;-77
2023/08/05 12:35:01;;;;;;;4.57;2.70;;;;;;;;;;5091232;28;20200;-77
2023/08/05 12:37:29;;;;;;;3.63;2.60;;;;;;;;;;5090786;28;20254;-77
2023/08/05 12:39:56;;;;;;;3.38;2.90;;;;;;;;;;5091103;28;20200;-77
2023/08/05 12:42:23;;;;;;;6.60;3.13;;;;;;;;;;5090700;28;20701;-77
2023/08/05 12:44:50;;;;;;;7.45;3.28;;;;;;;;;;5091186;28;20573;-78
2023/08/05 12:47:16;;;;;;;2.95;2.53;;;;;;;;;;5091215;28;20200;-78
2023/08/05 12:49:45;;;;;;;5.68;3.28;;;;;;;;;;5091021;28;20201;-77
2023/08/05 12:52:11;;;;;;;4.03;2.47;;;;;;;;;;5090766;28;20196;-77
2023/08/05 12:54:38;;;;;;;8.65;3.30;;;;;;;;;;5091150;28;20359;-77
2023/08/05 12:57:05;;;;;;;5.20;3.00;;;;;;;;;;5090856;28;20246;-78
2023/08/05 12:59:32;;;;;;;2.65;2.45;;;;;;;;;;5090784;28;20289;-77
2023/08/05 13:01:59;;;;;;;4.78;2.88;;;;;;;;;;5090592;28;20220;-77
2023/08/05 13:04:25;;;;;;;2.78;2.42;;;;;;;;;;5090641;28;20582;-77
2023/08/05 13:06:54;;;;;;;3.63;2.90;;;;;;;;;;5090888;28;20195;-78
2023/08/05 13:09:22;;;;;;;5.15;2.65;;;;;;;;;;5090588;28;20204;-78
2023/08/05 13:11:49;;;;;;;3.78;3.10;;;;;;;;;;5090702;28;20200;-77
2023/08/05 13:14:16;;;;;;;4.03;3.03;;;;;;;;;;5090476;28;20207;-78
2023/08/05 13:16:42;;;;;;;3.80;3.03;;;;;;;;;;5091038;28;20566;-77
2023/08/05 13:19:09;;;;;;;2.92;2.67;;;;;;;;;;5090889;28;20200;-78
2023/08/05 13:21:36;;;;;;;4.40;2.88;;;;;;;;;;5090841;28;20228;-77
2023/08/05 13:24:05;;;;;;;3.22;2.90;;;;;;;;;;5090474;28;20200;-77
2023/08/05 13:26:32;;;;;;;3.60;2.67;;;;;;;;;;5090300;28;20196;-77
2023/08/05 13:28:59;;;;;;;3.33;2.65;;;;;;;;;;5090377;28;20208;-77
2023/08/05 13:31:26;;;;;;;4.88;2.72;;;;;;;;;;5090899;28;20261;-77
2023/08/05 13:33:52;;;;;;;6.30;3.17;;;;;;;;;;5092078;28;20199;-78
2023/08/05 13:36:19;;;;;;;4.15;2.75;;;;;;;;;;5094295;28;20200;-78
2023/08/05 13:38:46;;;;;;;3.03;2.60;;;;;;;;;;5094708;28;20571;-77
2023/08/05 13:41:15;;;;;;;4.80;2.25;;;;;;;;;;5094185;28;20249;-77
2023/08/05 13:43:42;;;;;;;4.50;2.60;;;;;;;;;;5094289;28;20724;-77
2023/08/05 13:46:09;;;;;;;4.10;3.15;;;;;;;;;;5091353;28;20567;-80
2023/08/05 13:48:37;;;;;;;6.60;3.08;;;;;;;;;;5091402;28;20213;-79
2023/08/05 13:51:05;;;;;;;4.38;2.70;;;;;;;;;;5093946;28;20238;-77
2023/08/05 13:53:32;;;;;;;5.00;3.10;;;;;;;;;;5093795;28;20220;-78
2023/08/05 13:55:59;;;;;;;5.70;2.72;;;;;;;;;;5094333;28;20200;-77
2023/08/05 13:58:28;;;;;;;5.10;3.13;;;;;;;;;;5093856;28;20207;-77
2023/08/05 14:00:56;;;;;;;3.65;3.08;;;;;;;;;;5094002;28;20227;-78
2023/08/05 14:03:22;;;;;;;3.55;2.55;;;;;;;;;;5093914;28;20207;-77
2023/08/05 14:05:51;;;;;;;6.43;2.70;;;;;;;;;;5093500;28;20215;-77
2023/08/05 14:08:18;;;;;;;2.85;2.10;;;;;;;;;;5093511;28;20201;-77
2023/08/05 14:10:48;;;;;;;2.85;2.58;;;;;;;;;;5093446;28;20196;-78
2023/08/05 14:13:15;;;;;;;3.35;2.50;;;;;;;;;;5093480;28;20200;-78
2023/08/05 14:15:43;;;;;;;5.00;2.58;;;;;;;;;;5093418;28;20203;-77
2023/08/05 14:18:10;;;;;;;2.53;2.30;;;;;;;;;;5093317;28;20207;-78
2023/08/05 14:20:37;;;;;;;6.32;3.50;;;;;;;;;;5089681;28;20196;-77
2023/08/05 14:23:03;;;;;;;6.32;3.40;;;;;;;;;;5073212;28;20189;-77
2023/08/05 14:25:30;;;;;;;3.83;3.38;;;;;;;;;;5086481;28;20192;-78
2023/08/05 14:27:58;;;;;;;5.55;2.38;;;;;;;;;;5093519;28;20196;-77
2023/08/05 14:30:25;;;;;;;2.55;2.35;;;;;;;;;;5092958;28;20203;-77
2023/08/05 14:32:54;;;;;;;7.18;4.72;;;;;;;;;;5092925;28;20199;-77
2023/08/05 14:35:21;;;;;;;4.93;3.78;;;;;;;;;;5082871;28;20620;-77
2023/08/05 14:37:48;;;;;;;4.28;2.60;;;;;;;;;;5090916;28;20196;-78
2023/08/05 14:40:14;;;;;;;2.88;2.20;;;;;;;;;;5093268;28;20203;-79
2023/08/05 14:42:41;;;;;;;3.78;2.67;;;;;;;;;;5092728;28;20212;-77
2023/08/05 14:45:09;;;;;;;3.25;2.40;;;;;;;;;;5092650;28;20200;-78
2023/08/05 14:47:35;;;;;;;2.58;2.38;;;;;;;;;;5086660;28;20200;-77